Time;durP1;ratioP1;P1;durP2;ratioP2;P2;SDS_P1;SDS_P2;PMS_P1;PMS_P2;Temp;Humidity;BMP_temperature;BMP_pressure;BME280_temperature;BME280_humidity;BME280_pressure;Samples;Min_cycle;Max_cycle;Signal;HPM_P1;HPM_P2
2022/10/06 00:01:17;;;;;;;4.80;2.70;;;;;;;9.07;88.51;99601.31;5024963;28;20222;-67
2022/10/06 00:03:44;;;;;;;3.38;2.75;;;;;;;9.13;87.96;99608.94;5025588;28;20033;-67
2022/10/06 00:06:12;;;;;;;3.92;2.55;;;;;;;9.10;88.82;99600.41;5025674;28;20022;-66
2022/10/06 00:08:39;;;;;;;5.22;3.03;;;;;;;9.14;88.03;99607.25;5025291;28;20049;-67
2022/10/06 00:11:06;;;;;;;4.38;2.72;;;;;;;9.12;88.57;99602.09;5025556;28;20329;-67
2022/10/06 00:13:32;;;;;;;2.92;2.47;;;;;;;9.04;88.61;99587.59;5025374;28;20084;-67
2022/10/06 00:15:58;;;;;;;4.18;2.10;;;;;;;9.06;89.63;99594.44;5025023;28;20046;-68
2022/10/06 00:18:26;;;;;;;3.88;2.60;;;;;;;9.10;88.91;99609.00;5024980;28;20314;-67
2022/10/06 00:20:59;;;;;;;5.35;2.67;;;;;;;9.05;88.69;99594.47;5044892;28;20017;-67
2022/10/06 00:23:27;;;;;;;4.13;2.53;;;;;;;9.17;89.17;99612.34;5026686;28;20068;-67
2022/10/06 00:25:53;;;;;;;5.15;2.78;;;;;;;9.12;88.65;99617.59;5024833;28;20215;-67
2022/10/06 00:28:19;;;;;;;5.65;2.90;;;;;;;9.13;88.36;99611.53;5025249;28;20041;-67
2022/10/06 00:30:45;;;;;;;4.15;2.78;;;;;;;9.15;88.05;99612.38;5024786;28;20025;-67
2022/10/06 00:33:16;;;;;;;3.65;2.65;;;;;;;9.21;89.20;99618.31;5025073;28;20060;-67
2022/10/06 00:35:43;;;;;;;3.15;2.60;;;;;;;9.22;88.48;99607.97;5024767;28;20041;-67
2022/10/06 00:38:13;;;;;;;5.20;3.10;;;;;;;9.20;88.70;99614.03;5024810;28;20093;-68
2022/10/06 00:40:49;;;;;;;4.72;2.88;;;;;;;9.25;89.22;99619.94;5024617;28;20022;-68
2022/10/06 00:43:40;;;;;;;3.00;2.67;;;;;;;9.19;89.38;99614.91;5024978;28;20030;-68
2022/10/06 00:46:13;;;;;;;4.72;3.10;;;;;;;9.13;88.70;99603.78;5025012;28;20033;-68
2022/10/06 00:48:40;;;;;;;3.83;2.70;;;;;;;9.27;88.59;99611.31;5024376;28;20048;-67
2022/10/06 00:51:06;;;;;;;3.25;2.95;;;;;;;9.21;89.13;99610.56;5024817;28;20030;-67
2022/10/06 00:53:32;;;;;;;3.63;2.70;;;;;;;9.22;89.22;99609.69;5040147;28;20079;-67
2022/10/06 00:55:58;;;;;;;3.97;2.83;;;;;;;9.25;89.03;99612.19;5023259;28;20234;-67
2022/10/06 00:58:23;;;;;;;3.75;2.65;;;;;;;9.28;88.33;99612.19;5024200;28;20045;-67
2022/10/06 01:00:54;;;;;;;4.40;2.63;;;;;;;9.29;88.26;99619.03;5024049;28;20230;-67
2022/10/06 01:03:43;;;;;;;2.95;2.63;;;;;;;9.28;88.64;99617.34;5024547;28;20033;-67
2022/10/06 01:06:09;;;;;;;3.00;2.70;;;;;;;9.28;87.94;99613.00;5019119;28;20033;-68
2022/10/06 01:08:36;;;;;;;5.57;2.60;;;;;;;9.28;88.17;99619.94;5018917;28;20053;-69
2022/10/06 01:11:01;;;;;;;3.88;2.53;;;;;;;9.23;88.66;99613.97;5024151;28;20345;-67
2022/10/06 01:13:28;;;;;;;3.47;2.85;;;;;;;9.14;88.38;99599.47;5023551;28;20038;-68
2022/10/06 01:16:02;;;;;;;4.55;2.88;;;;;;;9.21;88.54;99611.41;5023862;28;20037;-65
2022/10/06 01:18:30;;;;;;;3.35;2.83;;;;;;;9.10;88.14;99598.66;5023012;28;20037;-67
2022/10/06 01:21:08;;;;;;;2.80;2.60;;;;;;;9.15;88.19;99606.38;5006359;28;20068;-67
2022/10/06 01:23:35;;;;;;;3.25;2.95;;;;;;;9.13;88.59;99613.28;5018907;28;20096;-67
2022/10/06 01:26:06;;;;;;;3.70;2.60;;;;;;;9.00;88.89;99593.69;5023834;28;20117;-67
2022/10/06 01:28:31;;;;;;;2.92;2.70;;;;;;;9.13;88.49;99613.28;5023893;28;20241;-67
2022/10/06 01:31:00;;;;;;;3.92;2.60;;;;;;;9.08;88.90;99608.19;5023651;28;20072;-67
2022/10/06 01:33:26;;;;;;;3.13;2.83;;;;;;;9.13;88.68;99611.53;5023918;28;20101;-67
2022/10/06 01:35:52;;;;;;;3.40;3.10;;;;;;;9.15;88.30;99614.13;5022451;28;20190;-67
2022/10/06 01:38:20;;;;;;;3.78;2.85;;;;;;;9.14;87.76;99605.50;5023855;28;20033;-67
2022/10/06 01:40:47;;;;;;;3.08;2.78;;;;;;;9.24;87.85;99620.84;5022115;28;20032;-67
2022/10/06 01:43:13;;;;;;;4.13;2.88;;;;;;;9.24;87.71;99613.94;5025498;28;20274;-67
2022/10/06 01:45:38;;;;;;;3.97;3.28;;;;;;;9.23;88.35;99612.22;5043302;28;20048;-68
2022/10/06 01:48:04;;;;;;;3.90;2.92;;;;;;;9.27;87.91;99616.47;5025305;28;20222;-68
2022/10/06 01:50:30;;;;;;;3.22;2.78;;;;;;;9.27;87.83;99615.63;5023398;28;20029;-67
2022/10/06 01:52:56;;;;;;;4.55;2.72;;;;;;;9.32;87.71;99613.81;5038510;28;20097;-67
2022/10/06 01:55:25;;;;;;;3.10;2.80;;;;;;;9.34;88.08;99617.22;5023520;28;20079;-67
2022/10/06 01:57:51;;;;;;;3.00;2.70;;;;;;;9.37;87.62;99624.09;5023551;28;20068;-67
2022/10/06 02:00:17;;;;;;;3.00;2.70;;;;;;;9.37;88.62;99624.91;5003814;28;20113;-68
2022/10/06 02:02:43;;;;;;;5.00;3.13;;;;;;;9.43;87.66;99624.81;5018907;28;20037;-68
2022/10/06 02:05:10;;;;;;;3.15;2.50;;;;;;;9.45;87.58;99620.47;5023669;28;20093;-67
2022/10/06 02:07:36;;;;;;;4.13;2.90;;;;;;;9.43;87.91;99626.53;5023383;28;20080;-68
2022/10/06 02:10:04;;;;;;;3.53;2.80;;;;;;;9.45;87.66;99630.81;5023100;28;20229;-67
2022/10/06 02:12:30;;;;;;;3.00;2.70;;;;;;;9.47;88.47;99633.38;5023472;28;20092;-68
2022/10/06 02:14:56;;;;;;;3.13;2.83;;;;;;;9.49;88.33;99626.44;5023062;28;20097;-68
2022/10/06 02:17:23;;;;;;;3.85;3.00;;;;;;;9.48;87.99;99627.31;5023401;28;20353;-68
2022/10/06 02:19:48;;;;;;;3.15;2.85;;;;;;;9.50;87.62;99630.72;5023135;28;20030;-68
2022/10/06 02:22:14;;;;;;;5.45;3.30;;;;;;;9.44;87.77;99621.34;5023400;28;20221;-68
2022/10/06 02:24:40;;;;;;;4.13;2.80;;;;;;;9.42;88.12;99624.84;5024683;28;20030;-69
2022/10/06 02:27:06;;;;;;;3.40;2.92;;;;;;;9.43;88.62;99614.47;5026325;28;20075;-68
2022/10/06 02:29:32;;;;;;;2.83;2.63;;;;;;;9.52;87.90;99617.75;5027316;28;20337;-68
2022/10/06 02:31:58;;;;;;;3.33;2.55;;;;;;;9.53;87.85;99620.31;5027048;28;20050;-67
2022/10/06 02:34:23;;;;;;;3.83;3.38;;;;;;;9.54;87.26;99619.44;5027247;28;20045;-67
2022/10/06 02:36:49;;;;;;;3.53;3.10;;;;;;;9.59;87.10;99624.53;5027281;28;20048;-67
2022/10/06 02:39:15;;;;;;;3.25;2.95;;;;;;;9.54;87.47;99618.59;5027213;28;20076;-66
2022/10/06 02:41:40;;;;;;;2.70;2.50;;;;;;;9.58;87.68;99623.69;5025777;28;20040;-67
2022/10/06 02:44:06;;;;;;;3.65;2.50;;;;;;;9.49;86.38;99622.13;5027176;28;20028;-67
2022/10/06 02:46:32;;;;;;;3.17;2.88;;;;;;;9.57;87.12;99629.72;5031775;28;20217;-67
2022/10/06 02:48:58;;;;;;;4.20;2.67;;;;;;;9.49;86.90;99634.19;5044133;28;20313;-66
2022/10/06 02:51:24;;;;;;;2.80;2.60;;;;;;;9.48;87.15;99629.91;5027126;28;20164;-68
2022/10/06 02:53:50;;;;;;;3.63;2.22;;;;;;;9.49;86.80;99641.94;5026759;28;20133;-67
2022/10/06 02:56:21;;;;;;;2.42;2.17;;;;;;;9.53;85.62;99643.59;5026703;28;20333;-66
2022/10/06 02:58:48;;;;;;;3.20;2.38;;;;;;;9.56;85.89;99645.28;5026708;28;20034;-67
2022/10/06 03:01:17;;;;;;;3.10;2.30;;;;;;;9.49;86.05;99637.63;5025732;28;20026;-67
2022/10/06 03:03:43;;;;;;;3.10;2.33;;;;;;;9.54;85.59;99647.88;5026598;28;20308;-67
2022/10/06 03:06:21;;;;;;;2.85;2.60;;;;;;;9.42;85.98;99624.84;5026407;28;20072;-67
2022/10/06 03:09:00;;;;;;;2.10;2.00;;;;;;;9.54;85.54;99636.72;5026449;28;20032;-68
2022/10/06 03:11:29;;;;;;;2.90;2.53;;;;;;;9.50;85.36;99635.91;5026636;28;20022;-67
2022/10/06 03:13:56;;;;;;;2.47;2.20;;;;;;;9.58;85.33;99639.19;5026366;28;20030;-68
2022/10/06 03:16:50;;;;;;;2.90;2.70;;;;;;;9.59;85.39;99648.66;5024966;28;20318;-68
2022/10/06 03:19:16;;;;;;;3.95;2.28;;;;;;;9.61;85.60;99644.31;5013901;28;20099;-68
2022/10/06 03:21:43;;;;;;;3.97;2.40;;;;;;;9.40;84.94;99605.94;5026059;28;20025;-69
2022/10/06 03:24:09;;;;;;;4.07;2.60;;;;;;;9.64;85.17;99635.66;5026270;28;20026;-68
2022/10/06 03:26:40;;;;;;;2.85;2.17;;;;;;;9.66;85.08;99641.63;5025987;28;20064;-67
2022/10/06 03:29:07;;;;;;;2.28;2.15;;;;;;;9.65;84.81;99642.53;5026426;28;20029;-69
2022/10/06 03:31:33;;;;;;;3.05;2.70;;;;;;;9.62;85.70;99635.69;5025924;28;20061;-68
2022/10/06 03:33:59;;;;;;;2.67;2.47;;;;;;;9.63;86.30;99645.16;5025730;28;20032;-67
2022/10/06 03:36:28;;;;;;;2.60;2.40;;;;;;;9.67;85.48;99646.78;5025378;28;20022;-67
2022/10/06 03:38:54;;;;;;;3.20;2.90;;;;;;;9.63;85.30;99628.75;5025818;28;20100;-68
2022/10/06 03:41:21;;;;;;;3.45;2.78;;;;;;;9.66;85.34;99639.03;5026073;28;20272;-68
2022/10/06 03:43:49;;;;;;;4.57;3.35;;;;;;;9.62;84.78;99627.94;5025907;28;20089;-67
2022/10/06 03:46:18;;;;;;;3.28;2.97;;;;;;;9.60;85.58;99621.91;5027831;28;20071;-68
2022/10/06 03:48:45;;;;;;;3.08;2.78;;;;;;;9.71;85.67;99637.25;5045779;28;20179;-67
2022/10/06 03:51:17;;;;;;;3.08;2.72;;;;;;;9.70;85.28;99637.28;5027638;28;20040;-67
2022/10/06 03:53:44;;;;;;;3.17;2.92;;;;;;;9.74;86.44;99641.50;5025723;28;20036;-67
2022/10/06 03:56:18;;;;;;;3.10;2.90;;;;;;;9.63;86.15;99627.06;5025636;28;20057;-67
2022/10/06 03:58:49;;;;;;;3.55;3.08;;;;;;;9.71;85.97;99636.41;5025094;28;20045;-68
2022/10/06 04:01:18;;;;;;;3.42;2.80;;;;;;;9.72;86.69;99636.38;5025507;28;20022;-68
2022/10/06 04:03:44;;;;;;;3.85;3.08;;;;;;;9.78;86.45;99656.09;5026865;28;20029;-67
2022/10/06 04:06:13;;;;;;;3.22;2.88;;;;;;;9.79;86.79;99650.00;5025987;28;20045;-69
2022/10/06 04:08:40;;;;;;;3.55;3.25;;;;;;;9.83;86.32;99649.94;5025180;28;20033;-69
2022/10/06 04:11:05;;;;;;;3.42;3.13;;;;;;;9.82;86.85;99656.00;5025466;28;20064;-68
2022/10/06 04:13:31;;;;;;;4.53;4.13;;;;;;;9.83;86.15;99652.53;5025126;28;20318;-68
2022/10/06 04:15:57;;;;;;;3.97;3.67;;;;;;;9.78;86.50;99646.59;5024821;28;20029;-66
2022/10/06 04:18:22;;;;;;;5.00;3.67;;;;;;;9.84;86.12;99656.81;5016154;28;20113;-68
2022/10/06 04:20:48;;;;;;;4.18;3.78;;;;;;;9.84;86.09;99646.47;5019747;28;20218;-67
2022/10/06 04:23:15;;;;;;;4.07;3.00;;;;;;;9.84;85.20;99656.81;5025038;28;20230;-68
2022/10/06 04:25:41;;;;;;;3.78;3.20;;;;;;;9.89;84.87;99653.28;5025028;28;20052;-67
2022/10/06 04:28:06;;;;;;;4.35;3.30;;;;;;;9.89;85.53;99659.31;5024542;28;20033;-67
2022/10/06 04:30:32;;;;;;;3.78;3.47;;;;;;;9.94;85.36;99661.81;5024829;28;20022;-67
2022/10/06 04:32:58;;;;;;;3.28;2.97;;;;;;;9.96;85.16;99657.44;5024806;28;20310;-67
2022/10/06 04:35:23;;;;;;;3.20;2.90;;;;;;;9.95;83.78;99666.97;5024792;28;20078;-67
2022/10/06 04:37:49;;;;;;;3.55;3.22;;;;;;;9.99;84.00;99662.56;5018893;28;20070;-66
2022/10/06 04:40:15;;;;;;;3.10;2.90;;;;;;;9.93;83.83;99654.94;5005140;28;20030;-67
2022/10/06 04:42:41;;;;;;;3.60;3.30;;;;;;;9.98;83.19;99661.72;5024176;28;20213;-68
2022/10/06 04:45:07;;;;;;;3.90;3.50;;;;;;;10.02;83.80;99655.63;5024764;28;20104;-68
2022/10/06 04:47:33;;;;;;;4.13;3.72;;;;;;;10.02;82.85;99667.72;5029101;28;20081;-69
2022/10/06 04:49:59;;;;;;;4.18;3.55;;;;;;;10.06;83.64;99673.66;5012192;28;20101;-68
2022/10/06 04:52:24;;;;;;;4.00;3.70;;;;;;;10.01;83.30;99666.00;5024750;28;20211;-68
2022/10/06 04:54:50;;;;;;;3.63;3.28;;;;;;;10.08;83.28;99674.50;5024276;28;20030;-69
2022/10/06 04:57:16;;;;;;;4.38;4.00;;;;;;;10.14;83.27;99685.56;5023372;28;20026;-70
2022/10/06 05:02:27;;;;;;;4.90;4.43;;;;;;;10.07;83.62;99658.09;5024549;28;20030;-68
2022/10/06 05:04:53;;;;;;;5.20;4.22;;;;;;;10.19;83.59;99673.38;5024195;28;20030;-69
2022/10/06 05:07:19;;;;;;;4.70;4.30;;;;;;;10.19;83.29;99675.13;5011568;28;20045;-68
2022/10/06 05:09:45;;;;;;;5.78;3.97;;;;;;;10.24;83.49;99672.44;5004551;28;20053;-67
2022/10/06 05:12:11;;;;;;;4.82;4.43;;;;;;;10.24;83.09;99667.28;5021576;28;20376;-67
2022/10/06 05:14:36;;;;;;;4.43;4.03;;;;;;;10.28;83.32;99664.59;5018427;28;20030;-68
2022/10/06 05:17:02;;;;;;;6.05;4.60;;;;;;;10.29;83.15;99662.84;5019157;28;20133;-66
2022/10/06 05:19:28;;;;;;;6.03;4.40;;;;;;;10.32;83.46;99665.38;5024319;28;20029;-68
2022/10/06 05:21:53;;;;;;;4.95;4.28;;;;;;;10.35;83.65;99660.16;5023758;28;20314;-67
2022/10/06 05:24:19;;;;;;;4.70;4.30;;;;;;;10.36;83.45;99662.72;5023769;28;20030;-67
2022/10/06 05:26:44;;;;;;;4.57;3.95;;;;;;;10.47;83.42;99670.25;5023739;28;20037;-67
2022/10/06 05:29:10;;;;;;;4.57;4.18;;;;;;;10.45;82.94;99669.44;5024243;28;20038;-67
2022/10/06 05:31:41;;;;;;;5.05;4.47;;;;;;;10.53;83.17;99674.44;5024246;28;20191;-67
2022/10/06 05:34:07;;;;;;;5.30;4.32;;;;;;;10.57;83.13;99673.50;5023177;28;20068;-68
2022/10/06 05:36:33;;;;;;;5.35;4.85;;;;;;;10.52;82.24;99673.59;5023210;28;20306;-69
2022/10/06 05:38:59;;;;;;;5.10;4.60;;;;;;;10.47;82.38;99675.44;5023148;28;20022;-67
2022/10/06 05:41:29;;;;;;;5.60;4.25;;;;;;;10.52;83.16;99670.16;5023474;28;20290;-66
2022/10/06 05:43:57;;;;;;;6.60;4.78;;;;;;;10.55;82.91;99670.09;5022912;28;20045;-65
2022/10/06 05:46:27;;;;;;;5.50;5.00;;;;;;;10.44;82.49;99659.97;5025404;28;20183;-67
2022/10/06 05:48:58;;;;;;;6.40;5.20;;;;;;;10.60;82.74;99683.78;5043103;28;20322;-67
2022/10/06 05:51:26;;;;;;;5.70;4.97;;;;;;;10.52;82.96;99667.59;5024631;28;20026;-66
2022/10/06 05:53:51;;;;;;;5.65;4.97;;;;;;;10.62;82.75;99676.00;5018814;28;20062;-66
2022/10/06 05:56:20;;;;;;;7.63;5.00;;;;;;;10.63;83.13;99670.78;5013522;28;20336;-66
2022/10/06 05:58:48;;;;;;;5.93;5.35;;;;;;;10.68;82.79;99684.47;5022835;28;20101;-67
2022/10/06 06:01:43;;;;;;;6.93;5.88;;;;;;;10.69;82.94;99681.00;5023494;28;20026;-67
2022/10/06 06:04:11;;;;;;;6.20;5.55;;;;;;;10.74;82.88;99686.06;5019373;28;20045;-67
2022/10/06 06:06:42;;;;;;;6.43;5.82;;;;;;;10.66;82.57;99677.63;5016355;28;20057;-67
2022/10/06 06:09:10;;;;;;;6.70;6.10;;;;;;;10.73;82.43;99684.41;5003652;28;20042;-67
2022/10/06 06:11:39;;;;;;;8.70;6.20;;;;;;;10.78;82.58;99679.09;5015593;28;20022;-67
2022/10/06 06:14:10;;;;;;;6.63;5.65;;;;;;;10.84;82.75;99684.97;5023220;28;20029;-66
2022/10/06 06:16:37;;;;;;;6.35;5.75;;;;;;;10.82;82.40;99676.41;5022959;28;20029;-66
2022/10/06 06:19:04;;;;;;;6.57;5.80;;;;;;;10.90;82.41;99681.41;5023267;28;20311;-67
2022/10/06 06:21:30;;;;;;;8.10;5.55;;;;;;;10.95;82.71;99684.75;5022274;28;20030;-67
2022/10/06 06:23:57;;;;;;;7.40;6.05;;;;;;;10.86;82.67;99666.84;5022967;28;20106;-67
2022/10/06 06:26:25;;;;;;;10.48;5.70;;;;;;;10.77;82.91;99672.22;5023334;28;20034;-67
2022/10/06 06:28:53;;;;;;;6.10;5.28;;;;;;;10.93;82.92;99676.16;5023115;28;20037;-66
2022/10/06 06:31:30;;;;;;;6.00;4.80;;;;;;;10.93;82.86;99675.31;5022732;28;20065;-66
2022/10/06 06:33:57;;;;;;;6.40;5.57;;;;;;;10.85;82.18;99663.38;5022906;28;20064;-67
2022/10/06 06:36:30;;;;;;;7.70;5.68;;;;;;;11.01;83.14;99679.41;5023155;28;20053;-67
2022/10/06 06:38:57;;;;;;;5.80;5.20;;;;;;;10.96;82.62;99688.19;5023275;28;20048;-67
2022/10/06 06:41:28;;;;;;;5.80;5.22;;;;;;;10.85;82.85;99673.75;5022774;28;20424;-66
2022/10/06 06:43:54;;;;;;;6.68;5.32;;;;;;;10.87;83.03;99679.75;5023149;28;20141;-67
2022/10/06 06:46:26;;;;;;;5.78;5.18;;;;;;;10.90;83.20;99675.38;5024322;28;20034;-67
2022/10/06 06:48:53;;;;;;;5.13;4.55;;;;;;;11.05;82.61;99686.22;5043269;28;20079;-66
2022/10/06 06:51:22;;;;;;;6.43;4.90;;;;;;;11.08;82.96;99674.94;5024273;28;20037;-67
2022/10/06 06:53:49;;;;;;;5.30;4.35;;;;;;;11.20;83.26;99684.16;5022380;28;20317;-68
2022/10/06 06:56:16;;;;;;;6.10;4.72;;;;;;;11.23;82.75;99687.53;5022918;28;20026;-68
2022/10/06 06:58:49;;;;;;;5.47;4.50;;;;;;;11.29;82.80;99686.53;5022839;28;20038;-68
2022/10/06 07:01:19;;;;;;;6.20;4.50;;;;;;;11.33;82.92;99689.91;5021934;28;20029;-66
2022/10/06 07:03:57;;;;;;;6.85;5.00;;;;;;;11.35;82.89;99675.16;5023152;28;20141;-66
2022/10/06 07:06:26;;;;;;;4.70;3.97;;;;;;;11.39;82.22;99680.25;5022803;28;20081;-67
2022/10/06 07:08:52;;;;;;;5.65;4.75;;;;;;;11.45;82.49;99679.22;5022527;28;20179;-67
2022/10/06 07:11:21;;;;;;;5.25;4.72;;;;;;;11.46;82.82;99672.28;5023580;28;20186;-68
2022/10/06 07:13:52;;;;;;;5.00;4.22;;;;;;;11.18;81.90;99647.91;5026565;28;20038;-68
2022/10/06 07:27:27;;;;;;;6.43;4.50;;;;;;;11.33;82.93;99667.44;5024204;28;20094;-66
2022/10/06 07:29:55;;;;;;;4.50;4.10;;;;;;;11.48;82.79;99668.78;5025461;28;20026;-68
2022/10/06 07:32:22;;;;;;;5.07;4.15;;;;;;;11.46;82.74;99669.69;5023513;28;20037;-67
2022/10/06 07:34:48;;;;;;;4.95;4.32;;;;;;;11.56;83.27;99673.78;5025290;28;20073;-67
2022/10/06 07:37:14;;;;;;;5.50;4.65;;;;;;;11.58;82.97;99666.81;5026059;28;20037;-66
2022/10/06 07:39:40;;;;;;;5.35;4.57;;;;;;;11.59;83.06;99668.50;5006728;28;20014;-67
2022/10/06 07:42:07;;;;;;;4.97;4.13;;;;;;;11.66;83.01;99669.22;5021397;28;20018;-67
2022/10/06 07:44:32;;;;;;;4.80;4.30;;;;;;;11.67;82.75;99670.91;5025777;28;20310;-67
2022/10/06 07:46:58;;;;;;;4.95;4.45;;;;;;;11.64;82.13;99668.38;5031617;28;20036;-68
2022/10/06 07:49:23;;;;;;;4.70;4.22;;;;;;;11.70;82.70;99668.22;5038691;28;20314;-67
2022/10/06 07:51:49;;;;;;;7.55;5.72;;;;;;;11.62;82.64;99668.44;5032712;28;20028;-67
2022/10/06 07:54:15;;;;;;;7.18;6.45;;;;;;;11.49;82.29;99667.06;5032645;28;20032;-67
2022/10/06 07:56:40;;;;;;;7.35;6.40;;;;;;;11.54;82.95;99666.06;5033761;28;20045;-67
2022/10/06 07:59:06;;;;;;;8.68;6.45;;;;;;;11.58;82.57;99664.22;5035460;28;20021;-67
2022/10/06 08:01:31;;;;;;;7.32;6.03;;;;;;;11.54;82.55;99660.00;5009817;28;20215;-67
2022/10/06 08:03:57;;;;;;;9.38;6.18;;;;;;;11.64;82.07;99666.63;5017818;28;20064;-67
2022/10/06 08:06:23;;;;;;;9.73;6.15;;;;;;;11.56;83.38;99669.44;5017942;28;20036;-67
2022/10/06 08:08:51;;;;;;;8.45;6.43;;;;;;;11.62;82.92;99659.81;5022137;28;20337;-66
2022/10/06 08:11:18;;;;;;;8.00;6.40;;;;;;;11.60;83.50;99661.56;5018736;28;20092;-67
2022/10/06 08:13:46;;;;;;;7.28;6.30;;;;;;;11.69;82.82;99659.59;5018436;28;20029;-67
2022/10/06 08:16:20;;;;;;;7.15;6.25;;;;;;;11.71;82.40;99641.38;5020232;28;20038;-67
2022/10/06 08:18:52;;;;;;;9.35;6.65;;;;;;;11.73;82.74;99639.63;5019780;28;20038;-68
2022/10/06 08:21:22;;;;;;;7.82;6.47;;;;;;;11.60;83.21;99633.03;5024502;28;20310;-67
2022/10/06 08:23:49;;;;;;;8.70;6.65;;;;;;;11.83;83.19;99656.63;5024716;28;20053;-67
2022/10/06 08:26:16;;;;;;;7.05;6.35;;;;;;;11.84;82.97;99653.16;5023637;28;20029;-67
2022/10/06 08:28:45;;;;;;;8.27;6.28;;;;;;;11.89;83.27;99651.28;5008336;28;20302;-67
2022/10/06 08:31:10;;;;;;;7.70;6.80;;;;;;;11.95;83.30;99655.47;5024926;28;20061;-67
2022/10/06 08:33:37;;;;;;;6.80;6.10;;;;;;;11.87;82.83;99658.25;5024823;28;20030;-68
2022/10/06 08:36:08;;;;;;;5.80;5.20;;;;;;;11.80;81.97;99641.16;5024365;28;20036;-68
2022/10/06 08:38:36;;;;;;;10.07;5.80;;;;;;;12.00;82.45;99657.94;5024426;28;20030;-66
2022/10/06 08:41:22;;;;;;;10.57;6.30;;;;;;;11.91;82.53;99631.34;5022211;28;20030;-67
2022/10/06 08:43:59;;;;;;;7.45;5.75;;;;;;;12.08;82.56;99650.78;5012771;28;20046;-67
2022/10/06 08:46:31;;;;;;;7.97;6.03;;;;;;;12.14;83.00;99655.81;5015953;28;20026;-67
2022/10/06 08:48:57;;;;;;;7.63;6.15;;;;;;;12.12;81.75;99667.97;5021128;28;20033;-67
2022/10/06 08:51:31;;;;;;;8.00;6.63;;;;;;;12.02;83.24;99671.75;5021338;28;20083;-67
2022/10/06 08:54:03;;;;;;;8.27;6.18;;;;;;;12.08;82.14;99671.56;5017601;28;20053;-68
2022/10/06 08:56:43;;;;;;;6.72;6.13;;;;;;;12.05;83.92;99661.25;5022134;28;20026;-67
2022/10/06 08:59:09;;;;;;;6.75;6.05;;;;;;;12.11;83.43;99676.66;5022947;28;20102;-67
2022/10/06 09:01:47;;;;;;;8.02;5.55;;;;;;;12.19;83.54;99677.31;5021317;28;20247;-67
2022/10/06 09:04:30;;;;;;;7.63;6.82;;;;;;;12.07;83.60;99662.94;5020583;28;20226;-68
2022/10/06 09:07:03;;;;;;;7.78;6.38;;;;;;;12.17;82.42;99671.31;5021803;28;20049;-67
2022/10/06 09:09:46;;;;;;;6.85;6.15;;;;;;;12.18;83.33;99675.59;5015031;28;20364;-68
2022/10/06 09:12:41;;;;;;;6.30;5.70;;;;;;;12.05;82.44;99674.25;5016204;28;20094;-68
2022/10/06 09:15:39;;;;;;;7.82;5.97;;;;;;;12.02;82.37;99666.53;5020433;28;20041;-68
2022/10/06 09:18:30;;;;;;;7.13;5.82;;;;;;;12.09;82.45;99683.66;5020516;28;20037;-68
2022/10/06 09:21:00;;;;;;;7.15;6.45;;;;;;;11.91;83.60;99670.25;5016218;28;20051;-67
2022/10/06 09:23:47;;;;;;;7.40;6.47;;;;;;;11.92;83.09;99671.94;5016574;28;20053;-67
2022/10/06 09:26:17;;;;;;;7.20;6.50;;;;;;;11.94;82.85;99658.13;5019874;28;20085;-67
2022/10/06 09:28:46;;;;;;;9.38;7.45;;;;;;;12.01;83.14;99673.47;5015549;28;20068;-68
2022/10/06 09:31:25;;;;;;;8.02;6.75;;;;;;;11.95;83.03;99659.81;5015552;28;20046;-67
2022/10/06 09:33:54;;;;;;;11.38;7.35;;;;;;;11.97;83.39;99652.84;5013698;28;20025;-67
2022/10/06 09:36:20;;;;;;;8.15;6.88;;;;;;;11.96;83.25;99653.75;5015336;28;20049;-68
2022/10/06 09:38:52;;;;;;;7.53;6.32;;;;;;;12.05;82.78;99654.31;5015261;28;20309;-67
2022/10/06 09:41:36;;;;;;;6.80;6.00;;;;;;;12.09;83.60;99674.09;5017432;28;20338;-68
2022/10/06 09:44:23;;;;;;;8.23;6.10;;;;;;;12.00;83.58;99653.63;5021351;28;20038;-68
2022/10/06 09:46:49;;;;;;;7.95;5.55;;;;;;;12.17;82.52;99671.31;5015954;28;20097;-68
2022/10/06 09:49:19;;;;;;;7.25;6.55;;;;;;;12.12;83.56;99672.34;5006030;28;20038;-68
2022/10/06 09:51:58;;;;;;;7.20;5.97;;;;;;;12.13;83.37;99668.81;5022929;28;20045;-68
2022/10/06 09:54:24;;;;;;;7.50;6.10;;;;;;;12.13;83.45;99667.09;5023002;28;20030;-67
2022/10/06 09:56:52;;;;;;;6.57;5.90;;;;;;;12.12;84.10;99667.97;5022966;28;20025;-67
2022/10/06 09:59:32;;;;;;;6.97;5.80;;;;;;;12.00;84.02;99647.56;5023929;28;20029;-68
2022/10/06 10:01:58;;;;;;;8.80;6.15;;;;;;;12.15;84.00;99667.88;5021980;28;20362;-67
2022/10/06 10:04:36;;;;;;;6.30;5.72;;;;;;;12.03;84.08;99674.28;5015417;28;20042;-67
2022/10/06 10:07:13;;;;;;;6.55;5.95;;;;;;;12.13;83.74;99659.31;5016864;28;20194;-67
2022/10/06 10:09:40;;;;;;;7.43;6.70;;;;;;;12.12;83.98;99657.59;5014073;28;20049;-68
2022/10/06 10:14:52;;;;;;;7.88;6.13;;;;;;;12.25;83.31;99653.75;5017253;28;20306;-67
2022/10/06 10:17:20;;;;;;;8.27;6.43;;;;;;;12.15;82.83;99641.09;5022710;28;20026;-67
2022/10/06 10:19:53;;;;;;;7.57;6.88;;;;;;;12.16;83.76;99643.63;5016241;28;20054;-67
2022/10/06 10:22:40;;;;;;;9.32;6.32;;;;;;;12.33;83.63;99656.13;5016173;28;20121;-68
2022/10/06 10:25:08;;;;;;;7.43;6.35;;;;;;;12.33;83.30;99655.31;5003307;28;20053;-68
2022/10/06 10:28:04;;;;;;;6.57;5.43;;;;;;;12.45;83.81;99652.31;5020530;28;20311;-68
2022/10/06 10:30:44;;;;;;;10.70;6.75;;;;;;;12.36;83.27;99656.03;5014983;28;20332;-67
2022/10/06 10:33:24;;;;;;;10.43;6.38;;;;;;;12.25;82.83;99652.91;5023163;28;20037;-67
2022/10/06 10:35:54;;;;;;;9.43;5.97;;;;;;;12.35;82.87;99645.69;5022806;28;20049;-67
2022/10/06 10:38:25;;;;;;;8.27;5.43;;;;;;;12.33;83.27;99634.53;5021438;28;20097;-67
2022/10/06 10:41:19;;;;;;;6.50;5.85;;;;;;;12.35;83.17;99635.31;5019347;28;20053;-67
2022/10/06 10:44:12;;;;;;;9.75;6.32;;;;;;;12.48;83.10;99630.59;5019617;28;20022;-67
2022/10/06 10:46:54;;;;;;;7.10;6.40;;;;;;;12.62;82.67;99640.59;5016655;28;20093;-68
2022/10/06 10:49:27;;;;;;;10.05;5.70;;;;;;;12.64;83.30;99624.06;5020469;28;20026;-68
2022/10/06 10:52:01;;;;;;;9.75;6.30;;;;;;;12.69;82.26;99642.09;5024743;28;20037;-67
2022/10/06 10:54:42;;;;;;;8.85;6.47;;;;;;;12.75;82.83;99629.78;5026017;28;20064;-67
2022/10/06 10:57:34;;;;;;;7.85;5.90;;;;;;;12.73;81.39;99634.16;5025688;28;20030;-68
2022/10/06 11:00:04;;;;;;;11.45;6.93;;;;;;;12.74;82.20;99632.38;5026467;28;20030;-67
2022/10/06 11:02:30;;;;;;;8.07;6.28;;;;;;;12.75;82.04;99637.56;5026698;28;20053;-69
2022/10/06 11:05:29;;;;;;;9.93;6.60;;;;;;;12.71;81.67;99635.97;5026568;28;20080;-67
2022/10/06 11:08:23;;;;;;;7.43;6.57;;;;;;;12.74;82.04;99637.59;5025994;28;20250;-67
2022/10/06 11:10:54;;;;;;;7.85;6.40;;;;;;;12.82;82.20;99642.56;5026429;28;20373;-67
2022/10/06 11:13:37;;;;;;;7.87;7.07;;;;;;;12.81;81.12;99644.28;5025421;28;20041;-66
2022/10/06 11:16:21;;;;;;;9.00;6.85;;;;;;;12.75;81.32;99650.56;5016353;28;20030;-68
2022/10/06 11:19:16;;;;;;;7.03;6.07;;;;;;;12.90;80.99;99656.19;5040624;28;20317;-68
2022/10/06 11:21:57;;;;;;;12.80;6.90;;;;;;;12.89;80.79;99660.50;5026004;28;20088;-68
2022/10/06 11:25:00;;;;;;;8.48;6.82;;;;;;;12.85;81.49;99651.09;5022355;28;20036;-68
2022/10/06 11:27:32;;;;;;;11.60;7.68;;;;;;;12.88;82.66;99658.81;5026117;28;20257;-68
2022/10/06 11:30:18;;;;;;;9.50;7.30;;;;;;;12.86;81.63;99658.00;5026012;28;20022;-67
2022/10/06 11:32:52;;;;;;;9.23;7.03;;;;;;;12.86;80.81;99654.56;5025779;28;20077;-67
2022/10/06 11:35:21;;;;;;;11.38;7.13;;;;;;;12.97;80.28;99656.81;5025983;28;20377;-66
2022/10/06 11:38:01;;;;;;;10.20;6.90;;;;;;;12.87;81.22;99638.91;5025558;28;20302;-67
2022/10/06 11:40:36;;;;;;;9.45;7.28;;;;;;;12.97;81.53;99657.69;5026053;28;20139;-68
2022/10/06 11:43:31;;;;;;;7.93;6.70;;;;;;;12.91;82.00;99644.84;5006139;28;20034;-68
2022/10/06 11:46:00;;;;;;;10.88;7.25;;;;;;;12.93;82.63;99654.31;5001033;28;20302;-68
2022/10/06 11:48:28;;;;;;;10.10;8.55;;;;;;;13.02;81.75;99657.53;5022085;28;20033;-67
2022/10/06 11:50:56;;;;;;;10.65;8.15;;;;;;;12.99;81.22;99662.81;5025588;28;20076;-67
2022/10/06 11:53:33;;;;;;;10.32;7.68;;;;;;;13.09;81.33;99648.63;5025664;28;20097;-67
2022/10/06 11:56:17;;;;;;;9.68;7.57;;;;;;;13.10;81.72;99656.38;5025449;28;20028;-68
2022/10/06 11:58:55;;;;;;;9.00;8.13;;;;;;;12.82;80.75;99609.63;5024954;28;20025;-67
2022/10/06 12:01:30;;;;;;;11.15;7.88;;;;;;;13.16;80.37;99651.88;5025798;28;20041;-66
2022/10/06 12:04:07;;;;;;;9.68;7.70;;;;;;;13.12;81.50;99648.53;5024842;28;20037;-66
2022/10/06 12:06:45;;;;;;;10.95;7.60;;;;;;;13.14;81.11;99646.75;5025237;28;20030;-66
2022/10/06 12:09:38;;;;;;;9.73;8.38;;;;;;;13.19;81.38;99644.81;5023790;28;20215;-67